sensor_id;sensor_type;location;lat;lon;timestamp;pressure;altitude;pressure_sealevel;temperature
80581;BMP180;1474;51.460;7.150;2023-05-07T00:02:01;100599.00;;;13.90
80581;BMP180;1474;51.460;7.150;2023-05-07T00:04:29;100600.00;;;13.90
80581;BMP180;1474;51.460;7.150;2023-05-07T00:07:01;100592.00;;;13.80
80581;BMP180;1474;51.460;7.150;2023-05-07T00:09:27;100600.00;;;13.90
80581;BMP180;1474;51.460;7.150;2023-05-07T00:11:53;100602.00;;;13.80
80581;BMP180;1474;51.460;7.150;2023-05-07T00:14:18;100614.00;;;13.90
80581;BMP180;1474;51.460;7.150;2023-05-07T00:16:44;100601.00;;;13.80
80581;BMP180;1474;51.460;7.150;2023-05-07T00:19:10;100607.00;;;13.80
80581;BMP180;1474;51.460;7.150;2023-05-07T00:21:36;100603.00;;;13.80
80581;BMP180;1474;51.460;7.150;2023-05-07T00:24:01;100608.00;;;13.80
80581;BMP180;1474;51.460;7.150;2023-05-07T00:26:27;100599.00;;;13.90
80581;BMP180;1474;51.460;7.150;2023-05-07T00:28:53;100609.00;;;13.90
80581;BMP180;1474;51.460;7.150;2023-05-07T00:31:18;100607.00;;;14.00
80581;BMP180;1474;51.460;7.150;2023-05-07T00:33:44;100602.00;;;13.70
80581;BMP180;1474;51.460;7.150;2023-05-07T00:36:10;100597.00;;;13.50
80581;BMP180;1474;51.460;7.150;2023-05-07T00:38:36;100603.00;;;13.50
80581;BMP180;1474;51.460;7.150;2023-05-07T00:41:01;100600.00;;;13.50
80581;BMP180;1474;51.460;7.150;2023-05-07T00:43:28;100592.00;;;13.50
80581;BMP180;1474;51.460;7.150;2023-05-07T00:45:54;100583.00;;;13.70
80581;BMP180;1474;51.460;7.150;2023-05-07T00:48:20;100590.00;;;13.70
80581;BMP180;1474;51.460;7.150;2023-05-07T00:50:46;100586.00;;;13.60
80581;BMP180;1474;51.460;7.150;2023-05-07T00:53:14;100575.00;;;13.60
80581;BMP180;1474;51.460;7.150;2023-05-07T00:55:40;100576.00;;;13.60
80581;BMP180;1474;51.460;7.150;2023-05-07T00:58:06;100583.00;;;13.60
80581;BMP180;1474;51.460;7.150;2023-05-07T01:00:32;100577.00;;;13.60
80581;BMP180;1474;51.460;7.150;2023-05-07T01:02:58;100574.00;;;13.60
80581;BMP180;1474;51.460;7.150;2023-05-07T01:05:26;100579.00;;;13.60
80581;BMP180;1474;51.460;7.150;2023-05-07T01:07:54;100578.00;;;13.60
80581;BMP180;1474;51.460;7.150;2023-05-07T01:10:21;100588.00;;;13.60
80581;BMP180;1474;51.460;7.150;2023-05-07T01:12:49;100577.00;;;13.50
80581;BMP180;1474;51.460;7.150;2023-05-07T01:15:16;100564.00;;;13.50
80581;BMP180;1474;51.460;7.150;2023-05-07T01:17:43;100567.00;;;13.40
80581;BMP180;1474;51.460;7.150;2023-05-07T01:20:10;100575.00;;;13.50
80581;BMP180;1474;51.460;7.150;2023-05-07T01:22:39;100573.00;;;13.60
80581;BMP180;1474;51.460;7.150;2023-05-07T01:25:07;100586.00;;;13.70
80581;BMP180;1474;51.460;7.150;2023-05-07T01:27:34;100586.00;;;13.70
80581;BMP180;1474;51.460;7.150;2023-05-07T01:30:01;100580.00;;;13.60
80581;BMP180;1474;51.460;7.150;2023-05-07T01:32:53;100578.00;;;13.40
80581;BMP180;1474;51.460;7.150;2023-05-07T01:35:29;100574.00;;;13.50
80581;BMP180;1474;51.460;7.150;2023-05-07T01:37:56;100576.00;;;13.50
80581;BMP180;1474;51.460;7.150;2023-05-07T01:40:23;100578.00;;;13.60
80581;BMP180;1474;51.460;7.150;2023-05-07T01:42:50;100570.00;;;13.60
80581;BMP180;1474;51.460;7.150;2023-05-07T01:45:16;100573.00;;;13.50
80581;BMP180;1474;51.460;7.150;2023-05-07T01:47:43;100579.00;;;13.60
80581;BMP180;1474;51.460;7.150;2023-05-07T01:50:09;100573.00;;;13.50
80581;BMP180;1474;51.460;7.150;2023-05-07T01:52:38;100574.00;;;13.50
80581;BMP180;1474;51.460;7.150;2023-05-07T01:55:05;100572.00;;;13.50
80581;BMP180;1474;51.460;7.150;2023-05-07T01:57:31;100567.00;;;13.50
80581;BMP180;1474;51.460;7.150;2023-05-07T01:59:57;100574.00;;;13.50
80581;BMP180;1474;51.460;7.150;2023-05-07T02:02:23;100564.00;;;13.40
80581;BMP180;1474;51.460;7.150;2023-05-07T02:04:48;100566.00;;;13.40
80581;BMP180;1474;51.460;7.150;2023-05-07T02:07:14;100569.00;;;13.30
80581;BMP180;1474;51.460;7.150;2023-05-07T02:09:40;100561.00;;;13.30
80581;BMP180;1474;51.460;7.150;2023-05-07T02:12:06;100572.00;;;13.30
80581;BMP180;1474;51.460;7.150;2023-05-07T02:14:31;100570.00;;;13.30
80581;BMP180;1474;51.460;7.150;2023-05-07T02:16:57;100565.00;;;13.30
80581;BMP180;1474;51.460;7.150;2023-05-07T02:19:23;100557.00;;;13.20
80581;BMP180;1474;51.460;7.150;2023-05-07T02:21:49;100565.00;;;13.20
80581;BMP180;1474;51.460;7.150;2023-05-07T02:24:15;100553.00;;;13.20
80581;BMP180;1474;51.460;7.150;2023-05-07T02:26:41;100566.00;;;13.20
80581;BMP180;1474;51.460;7.150;2023-05-07T02:29:07;100558.00;;;13.20
80581;BMP180;1474;51.460;7.150;2023-05-07T02:31:32;100562.00;;;13.20
80581;BMP180;1474;51.460;7.150;2023-05-07T02:34:00;100565.00;;;13.20
80581;BMP180;1474;51.460;7.150;2023-05-07T02:36:26;100565.00;;;13.20
80581;BMP180;1474;51.460;7.150;2023-05-07T02:38:52;100558.00;;;13.10
80581;BMP180;1474;51.460;7.150;2023-05-07T02:41:18;100558.00;;;13.20
80581;BMP180;1474;51.460;7.150;2023-05-07T02:43:44;100566.00;;;13.20
80581;BMP180;1474;51.460;7.150;2023-05-07T02:46:09;100556.00;;;13.20
80581;BMP180;1474;51.460;7.150;2023-05-07T02:48:35;100554.00;;;13.10
80581;BMP180;1474;51.460;7.150;2023-05-07T02:51:03;100558.00;;;13.10
80581;BMP180;1474;51.460;7.150;2023-05-07T02:53:28;100550.00;;;13.00
80581;BMP180;1474;51.460;7.150;2023-05-07T02:55:59;100554.00;;;13.10
80581;BMP180;1474;51.460;7.150;2023-05-07T02:58:26;100554.00;;;13.00
80581;BMP180;1474;51.460;7.150;2023-05-07T03:00:52;100548.00;;;13.00
80581;BMP180;1474;51.460;7.150;2023-05-07T03:03:20;100553.00;;;13.00
80581;BMP180;1474;51.460;7.150;2023-05-07T03:05:46;100551.00;;;13.00
80581;BMP180;1474;51.460;7.150;2023-05-07T03:08:12;100543.00;;;12.90
80581;BMP180;1474;51.460;7.150;2023-05-07T03:10:38;100552.00;;;12.90
80581;BMP180;1474;51.460;7.150;2023-05-07T03:13:04;100558.00;;;13.00
80581;BMP180;1474;51.460;7.150;2023-05-07T03:15:30;100547.00;;;12.90
80581;BMP180;1474;51.460;7.150;2023-05-07T03:17:56;100559.00;;;13.00
80581;BMP180;1474;51.460;7.150;2023-05-07T03:20:22;100562.00;;;13.00
80581;BMP180;1474;51.460;7.150;2023-05-07T03:22:48;100555.00;;;13.00
80581;BMP180;1474;51.460;7.150;2023-05-07T03:25:14;100560.00;;;13.00
80581;BMP180;1474;51.460;7.150;2023-05-07T03:27:40;100560.00;;;13.00
80581;BMP180;1474;51.460;7.150;2023-05-07T03:30:08;100564.00;;;13.00
80581;BMP180;1474;51.460;7.150;2023-05-07T03:32:34;100561.00;;;13.00
80581;BMP180;1474;51.460;7.150;2023-05-07T03:35:01;100564.00;;;13.00
80581;BMP180;1474;51.460;7.150;2023-05-07T03:37:27;100561.00;;;12.90
80581;BMP180;1474;51.460;7.150;2023-05-07T03:39:53;100557.00;;;12.90
80581;BMP180;1474;51.460;7.150;2023-05-07T03:42:19;100557.00;;;12.90
80581;BMP180;1474;51.460;7.150;2023-05-07T03:44:45;100555.00;;;12.80
80581;BMP180;1474;51.460;7.150;2023-05-07T03:47:11;100554.00;;;12.80
80581;BMP180;1474;51.460;7.150;2023-05-07T03:49:36;100554.00;;;12.90
80581;BMP180;1474;51.460;7.150;2023-05-07T03:52:02;100550.00;;;12.80
80581;BMP180;1474;51.460;7.150;2023-05-07T03:54:29;100555.00;;;12.70
80581;BMP180;1474;51.460;7.150;2023-05-07T03:56:55;100560.00;;;12.80
80581;BMP180;1474;51.460;7.150;2023-05-07T03:59:22;100562.00;;;12.80
80581;BMP180;1474;51.460;7.150;2023-05-07T04:01:48;100557.00;;;12.70
80581;BMP180;1474;51.460;7.150;2023-05-07T04:04:14;100554.00;;;12.70
80581;BMP180;1474;51.460;7.150;2023-05-07T04:06:40;100554.00;;;12.70
80581;BMP180;1474;51.460;7.150;2023-05-07T04:09:07;100559.00;;;12.80
80581;BMP180;1474;51.460;7.150;2023-05-07T04:11:33;100563.00;;;12.70
80581;BMP180;1474;51.460;7.150;2023-05-07T04:13:59;100560.00;;;12.80
80581;BMP180;1474;51.460;7.150;2023-05-07T04:16:25;100569.00;;;12.80
80581;BMP180;1474;51.460;7.150;2023-05-07T04:18:50;100570.00;;;12.80
80581;BMP180;1474;51.460;7.150;2023-05-07T04:21:18;100567.00;;;12.80
80581;BMP180;1474;51.460;7.150;2023-05-07T04:23:44;100564.00;;;12.80
80581;BMP180;1474;51.460;7.150;2023-05-07T04:26:10;100556.00;;;12.80
80581;BMP180;1474;51.460;7.150;2023-05-07T04:28:36;100569.00;;;12.80
80581;BMP180;1474;51.460;7.150;2023-05-07T04:31:02;100570.00;;;12.90
80581;BMP180;1474;51.460;7.150;2023-05-07T04:33:28;100570.00;;;12.90
80581;BMP180;1474;51.460;7.150;2023-05-07T04:35:53;100571.00;;;12.90
80581;BMP180;1474;51.460;7.150;2023-05-07T04:38:19;100572.00;;;12.90
80581;BMP180;1474;51.460;7.150;2023-05-07T04:40:45;100577.00;;;12.90
80581;BMP180;1474;51.460;7.150;2023-05-07T04:43:12;100571.00;;;13.00
80581;BMP180;1474;51.460;7.150;2023-05-07T04:45:38;100568.00;;;13.00
80581;BMP180;1474;51.460;7.150;2023-05-07T04:48:08;100573.00;;;13.00
80581;BMP180;1474;51.460;7.150;2023-05-07T04:50:34;100579.00;;;13.00
80581;BMP180;1474;51.460;7.150;2023-05-07T04:53:00;100573.00;;;13.10
80581;BMP180;1474;51.460;7.150;2023-05-07T04:55:25;100575.00;;;13.20
80581;BMP180;1474;51.460;7.150;2023-05-07T04:57:52;100574.00;;;13.30
80581;BMP180;1474;51.460;7.150;2023-05-07T05:00:18;100586.00;;;13.30
80581;BMP180;1474;51.460;7.150;2023-05-07T05:02:45;100576.00;;;13.30
80581;BMP180;1474;51.460;7.150;2023-05-07T05:05:11;100573.00;;;13.40
80581;BMP180;1474;51.460;7.150;2023-05-07T05:07:37;100580.00;;;13.60
80581;BMP180;1474;51.460;7.150;2023-05-07T05:10:05;100583.00;;;13.50
80581;BMP180;1474;51.460;7.150;2023-05-07T05:12:31;100580.00;;;13.60
80581;BMP180;1474;51.460;7.150;2023-05-07T05:14:57;100578.00;;;13.70
80581;BMP180;1474;51.460;7.150;2023-05-07T05:17:23;100586.00;;;13.60
80581;BMP180;1474;51.460;7.150;2023-05-07T05:19:49;100576.00;;;13.50
80581;BMP180;1474;51.460;7.150;2023-05-07T05:22:15;100578.00;;;13.60
80581;BMP180;1474;51.460;7.150;2023-05-07T05:24:41;100575.00;;;13.70
80581;BMP180;1474;51.460;7.150;2023-05-07T05:27:06;100574.00;;;13.80
80581;BMP180;1474;51.460;7.150;2023-05-07T05:29:32;100586.00;;;14.10
80581;BMP180;1474;51.460;7.150;2023-05-07T05:31:58;100574.00;;;14.60
80581;BMP180;1474;51.460;7.150;2023-05-07T05:34:23;100567.00;;;14.20
80581;BMP180;1474;51.460;7.150;2023-05-07T05:36:49;100573.00;;;14.40
80581;BMP180;1474;51.460;7.150;2023-05-07T05:39:15;100571.00;;;14.80
80581;BMP180;1474;51.460;7.150;2023-05-07T05:41:41;100563.00;;;15.00
80581;BMP180;1474;51.460;7.150;2023-05-07T05:44:06;100570.00;;;14.60
80581;BMP180;1474;51.460;7.150;2023-05-07T05:46:32;100565.00;;;15.10
80581;BMP180;1474;51.460;7.150;2023-05-07T05:48:58;100563.00;;;15.70
80581;BMP180;1474;51.460;7.150;2023-05-07T05:51:24;100570.00;;;16.20
80581;BMP180;1474;51.460;7.150;2023-05-07T05:53:49;100589.00;;;15.70
80581;BMP180;1474;51.460;7.150;2023-05-07T05:56:16;100593.00;;;15.30
80581;BMP180;1474;51.460;7.150;2023-05-07T05:58:42;100565.00;;;15.60
80581;BMP180;1474;51.460;7.150;2023-05-07T06:01:08;100568.00;;;16.20
80581;BMP180;1474;51.460;7.150;2023-05-07T06:03:33;100588.00;;;15.70
80581;BMP180;1474;51.460;7.150;2023-05-07T06:05:59;100595.00;;;15.90
80581;BMP180;1474;51.460;7.150;2023-05-07T06:08:31;100583.00;;;15.50
80581;BMP180;1474;51.460;7.150;2023-05-07T06:10:57;100587.00;;;16.20
80581;BMP180;1474;51.460;7.150;2023-05-07T06:13:23;100582.00;;;16.60
80581;BMP180;1474;51.460;7.150;2023-05-07T06:15:49;100594.00;;;16.90
80581;BMP180;1474;51.460;7.150;2023-05-07T06:18:15;100597.00;;;16.70
80581;BMP180;1474;51.460;7.150;2023-05-07T06:20:41;100602.00;;;16.60
80581;BMP180;1474;51.460;7.150;2023-05-07T06:23:07;100601.00;;;16.10
80581;BMP180;1474;51.460;7.150;2023-05-07T06:25:33;100601.00;;;16.00
80581;BMP180;1474;51.460;7.150;2023-05-07T06:27:59;100596.00;;;15.90
80581;BMP180;1474;51.460;7.150;2023-05-07T06:30:24;100612.00;;;15.60
80581;BMP180;1474;51.460;7.150;2023-05-07T06:32:50;100616.00;;;15.50
80581;BMP180;1474;51.460;7.150;2023-05-07T06:35:16;100615.00;;;16.20
80581;BMP180;1474;51.460;7.150;2023-05-07T06:37:42;100623.00;;;16.00
80581;BMP180;1474;51.460;7.150;2023-05-07T06:40:09;100614.00;;;16.20
80581;BMP180;1474;51.460;7.150;2023-05-07T06:42:36;100626.00;;;16.70
80581;BMP180;1474;51.460;7.150;2023-05-07T06:45:02;100623.00;;;16.50
80581;BMP180;1474;51.460;7.150;2023-05-07T06:47:28;100624.00;;;16.40
80581;BMP180;1474;51.460;7.150;2023-05-07T06:49:54;100631.00;;;16.20
80581;BMP180;1474;51.460;7.150;2023-05-07T06:52:20;100631.00;;;15.90
80581;BMP180;1474;51.460;7.150;2023-05-07T06:54:46;100630.00;;;16.10
80581;BMP180;1474;51.460;7.150;2023-05-07T06:57:12;100635.00;;;16.00
80581;BMP180;1474;51.460;7.150;2023-05-07T06:59:37;100627.00;;;16.10
80581;BMP180;1474;51.460;7.150;2023-05-07T07:02:03;100627.00;;;16.10
80581;BMP180;1474;51.460;7.150;2023-05-07T07:04:29;100620.00;;;16.20
80581;BMP180;1474;51.460;7.150;2023-05-07T07:06:56;100619.00;;;16.10
80581;BMP180;1474;51.460;7.150;2023-05-07T07:09:22;100611.00;;;16.20
80581;BMP180;1474;51.460;7.150;2023-05-07T07:11:48;100612.00;;;16.30
80581;BMP180;1474;51.460;7.150;2023-05-07T07:14:14;100610.00;;;16.50
80581;BMP180;1474;51.460;7.150;2023-05-07T07:16:40;100613.00;;;16.70
80581;BMP180;1474;51.460;7.150;2023-05-07T07:19:06;100604.00;;;16.90
80581;BMP180;1474;51.460;7.150;2023-05-07T07:21:32;100614.00;;;16.20
80581;BMP180;1474;51.460;7.150;2023-05-07T07:24:01;100613.00;;;16.30
80581;BMP180;1474;51.460;7.150;2023-05-07T07:26:26;100614.00;;;16.30
80581;BMP180;1474;51.460;7.150;2023-05-07T07:28:52;100622.00;;;16.70
80581;BMP180;1474;51.460;7.150;2023-05-07T07:31:18;100624.00;;;16.50
80581;BMP180;1474;51.460;7.150;2023-05-07T07:33:43;100632.00;;;16.30
80581;BMP180;1474;51.460;7.150;2023-05-07T07:36:09;100624.00;;;16.50
80581;BMP180;1474;51.460;7.150;2023-05-07T07:38:35;100629.00;;;16.60
80581;BMP180;1474;51.460;7.150;2023-05-07T07:41:02;100625.00;;;16.70
80581;BMP180;1474;51.460;7.150;2023-05-07T07:43:27;100628.00;;;17.20
80581;BMP180;1474;51.460;7.150;2023-05-07T07:45:53;100615.00;;;16.90
80581;BMP180;1474;51.460;7.150;2023-05-07T07:48:19;100623.00;;;16.90
80581;BMP180;1474;51.460;7.150;2023-05-07T07:50:48;100615.00;;;17.10
80581;BMP180;1474;51.460;7.150;2023-05-07T07:53:14;100616.00;;;17.30
80581;BMP180;1474;51.460;7.150;2023-05-07T07:55:40;100629.00;;;17.40
80581;BMP180;1474;51.460;7.150;2023-05-07T07:58:06;100639.00;;;17.40
80581;BMP180;1474;51.460;7.150;2023-05-07T08:00:32;100640.00;;;17.20
80581;BMP180;1474;51.460;7.150;2023-05-07T08:02:57;100643.00;;;16.70
80581;BMP180;1474;51.460;7.150;2023-05-07T08:05:24;100649.00;;;16.70
80581;BMP180;1474;51.460;7.150;2023-05-07T08:07:50;100640.00;;;17.10
80581;BMP180;1474;51.460;7.150;2023-05-07T08:10:19;100644.00;;;17.70
80581;BMP180;1474;51.460;7.150;2023-05-07T08:12:51;100651.00;;;17.60
80581;BMP180;1474;51.460;7.150;2023-05-07T08:15:17;100646.00;;;17.70
80581;BMP180;1474;51.460;7.150;2023-05-07T08:17:43;100654.00;;;17.90
80581;BMP180;1474;51.460;7.150;2023-05-07T08:20:09;100655.00;;;18.00
80581;BMP180;1474;51.460;7.150;2023-05-07T08:22:36;100645.00;;;18.00
80581;BMP180;1474;51.460;7.150;2023-05-07T08:25:03;100654.00;;;18.00
80581;BMP180;1474;51.460;7.150;2023-05-07T08:27:29;100645.00;;;18.30
80581;BMP180;1474;51.460;7.150;2023-05-07T08:29:55;100642.00;;;17.90
80581;BMP180;1474;51.460;7.150;2023-05-07T08:32:21;100645.00;;;17.90
80581;BMP180;1474;51.460;7.150;2023-05-07T08:34:47;100640.00;;;17.70
80581;BMP180;1474;51.460;7.150;2023-05-07T08:37:13;100629.00;;;18.60
80581;BMP180;1474;51.460;7.150;2023-05-07T08:39:39;100642.00;;;18.10
80581;BMP180;1474;51.460;7.150;2023-05-07T08:42:06;100612.00;;;18.90
80581;BMP180;1474;51.460;7.150;2023-05-07T08:44:34;100612.00;;;19.50
80581;BMP180;1474;51.460;7.150;2023-05-07T08:47:06;100627.00;;;18.80
80581;BMP180;1474;51.460;7.150;2023-05-07T08:49:34;100629.00;;;19.60
80581;BMP180;1474;51.460;7.150;2023-05-07T08:52:01;100640.00;;;19.80
80581;BMP180;1474;51.460;7.150;2023-05-07T08:54:28;100637.00;;;19.60
80581;BMP180;1474;51.460;7.150;2023-05-07T08:56:55;100644.00;;;19.30
80581;BMP180;1474;51.460;7.150;2023-05-07T08:59:20;100640.00;;;18.80
80581;BMP180;1474;51.460;7.150;2023-05-07T09:01:46;100637.00;;;19.40
80581;BMP180;1474;51.460;7.150;2023-05-07T09:04:12;100641.00;;;19.40
80581;BMP180;1474;51.460;7.150;2023-05-07T09:06:38;100635.00;;;19.10
80581;BMP180;1474;51.460;7.150;2023-05-07T09:09:07;100638.00;;;19.50
80581;BMP180;1474;51.460;7.150;2023-05-07T09:11:34;100641.00;;;19.20
80581;BMP180;1474;51.460;7.150;2023-05-07T09:14:01;100636.00;;;19.00
80581;BMP180;1474;51.460;7.150;2023-05-07T09:16:30;100639.00;;;19.40
80581;BMP180;1474;51.460;7.150;2023-05-07T09:18:59;100634.00;;;19.90
80581;BMP180;1474;51.460;7.150;2023-05-07T09:21:26;100619.00;;;20.00
80581;BMP180;1474;51.460;7.150;2023-05-07T09:23:54;100623.00;;;20.00
80581;BMP180;1474;51.460;7.150;2023-05-07T09:26:25;100629.00;;;21.00
80581;BMP180;1474;51.460;7.150;2023-05-07T09:28:51;100616.00;;;20.80
80581;BMP180;1474;51.460;7.150;2023-05-07T09:31:18;100621.00;;;20.20
80581;BMP180;1474;51.460;7.150;2023-05-07T09:33:44;100623.00;;;19.80
80581;BMP180;1474;51.460;7.150;2023-05-07T09:36:10;100595.00;;;20.40
80581;BMP180;1474;51.460;7.150;2023-05-07T09:38:37;100595.00;;;21.50
80581;BMP180;1474;51.460;7.150;2023-05-07T09:41:13;100608.00;;;21.90
80581;BMP180;1474;51.460;7.150;2023-05-07T09:43:40;100625.00;;;22.10
80581;BMP180;1474;51.460;7.150;2023-05-07T09:46:11;100630.00;;;22.20
80581;BMP180;1474;51.460;7.150;2023-05-07T09:48:41;100632.00;;;21.00
80581;BMP180;1474;51.460;7.150;2023-05-07T09:51:30;100646.00;;;20.70
80581;BMP180;1474;51.460;7.150;2023-05-07T09:53:58;100647.00;;;20.90
80581;BMP180;1474;51.460;7.150;2023-05-07T09:56:30;100639.00;;;20.70
80581;BMP180;1474;51.460;7.150;2023-05-07T09:59:00;100645.00;;;20.40
80581;BMP180;1474;51.460;7.150;2023-05-07T10:01:27;100646.00;;;20.90
80581;BMP180;1474;51.460;7.150;2023-05-07T10:03:54;100644.00;;;20.20
80581;BMP180;1474;51.460;7.150;2023-05-07T10:06:24;100645.00;;;20.80
80581;BMP180;1474;51.460;7.150;2023-05-07T10:08:52;100649.00;;;20.50
80581;BMP180;1474;51.460;7.150;2023-05-07T10:11:19;100644.00;;;20.60
80581;BMP180;1474;51.460;7.150;2023-05-07T10:13:47;100636.00;;;19.90
80581;BMP180;1474;51.460;7.150;2023-05-07T10:16:14;100611.00;;;20.60
80581;BMP180;1474;51.460;7.150;2023-05-07T10:18:41;100625.00;;;21.60
80581;BMP180;1474;51.460;7.150;2023-05-07T10:21:27;100644.00;;;21.50
80581;BMP180;1474;51.460;7.150;2023-05-07T10:24:04;100647.00;;;21.00
80581;BMP180;1474;51.460;7.150;2023-05-07T10:26:34;100628.00;;;20.90
80581;BMP180;1474;51.460;7.150;2023-05-07T10:29:10;100649.00;;;20.70
80581;BMP180;1474;51.460;7.150;2023-05-07T10:31:57;100648.00;;;20.50
80581;BMP180;1474;51.460;7.150;2023-05-07T10:34:33;100655.00;;;20.80
80581;BMP180;1474;51.460;7.150;2023-05-07T10:37:00;100650.00;;;20.40
80581;BMP180;1474;51.460;7.150;2023-05-07T10:39:27;100637.00;;;20.00
80581;BMP180;1474;51.460;7.150;2023-05-07T10:41:54;100617.00;;;21.30
80581;BMP180;1474;51.460;7.150;2023-05-07T10:44:30;100611.00;;;21.60
80581;BMP180;1474;51.460;7.150;2023-05-07T10:47:07;100624.00;;;21.10
80581;BMP180;1474;51.460;7.150;2023-05-07T10:49:37;100592.00;;;22.70
80581;BMP180;1474;51.460;7.150;2023-05-07T10:54:45;100631.00;;;22.80
80581;BMP180;1474;51.460;7.150;2023-05-07T10:57:36;100630.00;;;22.90
80581;BMP180;1474;51.460;7.150;2023-05-07T11:00:03;100617.00;;;23.30
80581;BMP180;1474;51.460;7.150;2023-05-07T11:05:32;100629.00;;;23.00
80581;BMP180;1474;51.460;7.150;2023-05-07T11:08:04;100626.00;;;22.90
80581;BMP180;1474;51.460;7.150;2023-05-07T11:10:57;100632.00;;;21.70
80581;BMP180;1474;51.460;7.150;2023-05-07T11:13:56;100629.00;;;22.10
80581;BMP180;1474;51.460;7.150;2023-05-07T11:16:24;100628.00;;;22.00
80581;BMP180;1474;51.460;7.150;2023-05-07T11:18:55;100632.00;;;22.00
80581;BMP180;1474;51.460;7.150;2023-05-07T11:21:41;100631.00;;;22.20
80581;BMP180;1474;51.460;7.150;2023-05-07T11:24:10;100637.00;;;22.30
80581;BMP180;1474;51.460;7.150;2023-05-07T11:26:49;100635.00;;;22.60
80581;BMP180;1474;51.460;7.150;2023-05-07T11:31:42;100640.00;;;21.80
80581;BMP180;1474;51.460;7.150;2023-05-07T11:34:08;100649.00;;;21.70
80581;BMP180;1474;51.460;7.150;2023-05-07T11:36:41;100646.00;;;21.70
80581;BMP180;1474;51.460;7.150;2023-05-07T11:39:31;100659.00;;;21.40
80581;BMP180;1474;51.460;7.150;2023-05-07T11:41:59;100635.00;;;21.20
80581;BMP180;1474;51.460;7.150;2023-05-07T11:44:42;100647.00;;;21.60
80581;BMP180;1474;51.460;7.150;2023-05-07T11:47:08;100647.00;;;21.00
80581;BMP180;1474;51.460;7.150;2023-05-07T11:49:35;100646.00;;;21.30
80581;BMP180;1474;51.460;7.150;2023-05-07T11:52:01;100643.00;;;21.00
80581;BMP180;1474;51.460;7.150;2023-05-07T11:54:35;100640.00;;;21.70
80581;BMP180;1474;51.460;7.150;2023-05-07T11:57:02;100656.00;;;21.20
80581;BMP180;1474;51.460;7.150;2023-05-07T11:59:28;100636.00;;;21.00
80581;BMP180;1474;51.460;7.150;2023-05-07T12:01:57;100650.00;;;21.20
80581;BMP180;1474;51.460;7.150;2023-05-07T12:04:24;100650.00;;;21.10
80581;BMP180;1474;51.460;7.150;2023-05-07T12:06:54;100655.00;;;21.20
80581;BMP180;1474;51.460;7.150;2023-05-07T12:09:21;100661.00;;;21.20
80581;BMP180;1474;51.460;7.150;2023-05-07T12:11:47;100655.00;;;21.70
80581;BMP180;1474;51.460;7.150;2023-05-07T12:14:13;100661.00;;;20.90
80581;BMP180;1474;51.460;7.150;2023-05-07T12:16:41;100656.00;;;20.90
80581;BMP180;1474;51.460;7.150;2023-05-07T12:19:08;100669.00;;;20.50
80581;BMP180;1474;51.460;7.150;2023-05-07T12:21:38;100656.00;;;21.30
80581;BMP180;1474;51.460;7.150;2023-05-07T12:24:05;100662.00;;;21.10
80581;BMP180;1474;51.460;7.150;2023-05-07T12:26:31;100666.00;;;21.20
80581;BMP180;1474;51.460;7.150;2023-05-07T12:28:58;100665.00;;;20.50
80581;BMP180;1474;51.460;7.150;2023-05-07T12:31:26;100674.00;;;20.70
80581;BMP180;1474;51.460;7.150;2023-05-07T12:33:52;100668.00;;;20.60
80581;BMP180;1474;51.460;7.150;2023-05-07T12:36:18;100671.00;;;20.80
80581;BMP180;1474;51.460;7.150;2023-05-07T12:39:33;100676.00;;;20.60
80581;BMP180;1474;51.460;7.150;2023-05-07T12:41:59;100690.00;;;20.60
80581;BMP180;1474;51.460;7.150;2023-05-07T12:44:30;100680.00;;;20.30
80581;BMP180;1474;51.460;7.150;2023-05-07T12:46:57;100683.00;;;20.20
80581;BMP180;1474;51.460;7.150;2023-05-07T12:49:25;100682.00;;;20.60
80581;BMP180;1474;51.460;7.150;2023-05-07T12:51:51;100688.00;;;20.80
80581;BMP180;1474;51.460;7.150;2023-05-07T12:54:38;100680.00;;;20.60
80581;BMP180;1474;51.460;7.150;2023-05-07T12:57:08;100691.00;;;20.30
80581;BMP180;1474;51.460;7.150;2023-05-07T12:59:39;100692.00;;;20.10
80581;BMP180;1474;51.460;7.150;2023-05-07T13:02:06;100694.00;;;20.40
80581;BMP180;1474;51.460;7.150;2023-05-07T13:04:32;100694.00;;;20.40
80581;BMP180;1474;51.460;7.150;2023-05-07T13:06:59;100700.00;;;20.30
80581;BMP180;1474;51.460;7.150;2023-05-07T13:09:25;100691.00;;;20.20
80581;BMP180;1474;51.460;7.150;2023-05-07T13:11:51;100694.00;;;20.10
80581;BMP180;1474;51.460;7.150;2023-05-07T13:14:17;100696.00;;;19.90
80581;BMP180;1474;51.460;7.150;2023-05-07T13:16:43;100698.00;;;20.00
80581;BMP180;1474;51.460;7.150;2023-05-07T13:19:09;100699.00;;;20.10
80581;BMP180;1474;51.460;7.150;2023-05-07T13:21:34;100698.00;;;20.10
80581;BMP180;1474;51.460;7.150;2023-05-07T13:24:00;100706.00;;;20.30
80581;BMP180;1474;51.460;7.150;2023-05-07T13:26:26;100702.00;;;20.00
80581;BMP180;1474;51.460;7.150;2023-05-07T13:28:55;100698.00;;;19.80
80581;BMP180;1474;51.460;7.150;2023-05-07T13:31:20;100707.00;;;19.80
80581;BMP180;1474;51.460;7.150;2023-05-07T13:33:47;100711.00;;;19.60
80581;BMP180;1474;51.460;7.150;2023-05-07T13:36:13;100714.00;;;19.80
80581;BMP180;1474;51.460;7.150;2023-05-07T13:38:41;100704.00;;;19.90
80581;BMP180;1474;51.460;7.150;2023-05-07T13:41:07;100712.00;;;19.80
80581;BMP180;1474;51.460;7.150;2023-05-07T13:43:33;100717.00;;;20.00
80581;BMP180;1474;51.460;7.150;2023-05-07T13:46:00;100705.00;;;20.20
80581;BMP180;1474;51.460;7.150;2023-05-07T13:48:26;100706.00;;;20.00
80581;BMP180;1474;51.460;7.150;2023-05-07T13:50:53;100706.00;;;19.70
80581;BMP180;1474;51.460;7.150;2023-05-07T13:53:19;100709.00;;;19.70
80581;BMP180;1474;51.460;7.150;2023-05-07T13:55:45;100715.00;;;19.80
80581;BMP180;1474;51.460;7.150;2023-05-07T13:58:11;100715.00;;;19.80
80581;BMP180;1474;51.460;7.150;2023-05-07T14:00:37;100707.00;;;19.90
80581;BMP180;1474;51.460;7.150;2023-05-07T14:03:04;100710.00;;;19.70
80581;BMP180;1474;51.460;7.150;2023-05-07T14:05:30;100710.00;;;19.70
80581;BMP180;1474;51.460;7.150;2023-05-07T14:07:59;100706.00;;;19.90
80581;BMP180;1474;51.460;7.150;2023-05-07T14:10:25;100717.00;;;19.90
80581;BMP180;1474;51.460;7.150;2023-05-07T14:12:51;100708.00;;;19.70
80581;BMP180;1474;51.460;7.150;2023-05-07T14:15:18;100712.00;;;19.80
80581;BMP180;1474;51.460;7.150;2023-05-07T14:17:44;100716.00;;;19.50
80581;BMP180;1474;51.460;7.150;2023-05-07T14:20:12;100716.00;;;19.60